Time;durP1;ratioP1;P1;durP2;ratioP2;P2;SDS_P1;SDS_P2;PMS_P1;PMS_P2;Temp;Humidity;BMP_temperature;BMP_pressure;BME280_temperature;BME280_humidity;BME280_pressure;Samples;Min_cycle;Max_cycle;Signal;HPM_P1;HPM_P2
2023/07/01 00:00:58;;;;;;;8.10;5.57;;;;;;;18.75;80.31;96683.34;5105969;28;20243;-77
2023/07/01 00:04:19;;;;;;;6.63;6.03;;;;;;;18.48;80.81;96680.41;5106026;28;20193;-77
2023/07/01 00:07:40;;;;;;;9.50;5.80;;;;;;;18.27;81.07;96685.59;5107856;28;20202;-76
2023/07/01 00:11:01;;;;;;;6.50;5.60;;;;;;;18.05;82.16;96682.22;5107021;28;20201;-79
2023/07/01 00:14:22;;;;;;;6.93;5.67;;;;;;;18.13;81.56;96679.81;5107229;28;20193;-77
2023/07/01 00:17:57;;;;;;;6.60;5.90;;;;;;;18.00;82.05;96694.84;5107591;28;20201;-76
2023/07/01 00:21:18;;;;;;;7.27;6.60;;;;;;;17.71;83.11;96690.16;5108019;28;20260;-79
2023/07/01 00:24:39;;;;;;;7.90;6.43;;;;;;;17.78;83.00;96683.47;5105396;28;20227;-77
2023/07/01 00:28:00;;;;;;;8.10;6.30;;;;;;;17.78;82.78;96685.28;5106207;28;20813;-78
2023/07/01 00:31:20;;;;;;;6.73;6.07;;;;;;;17.77;82.34;96679.19;5105151;28;20819;-78
2023/07/01 00:34:41;;;;;;;8.70;5.73;;;;;;;17.72;82.05;96683.94;5091229;28;20577;-76
2023/07/01 00:38:03;;;;;;;6.93;6.23;;;;;;;17.65;81.23;96680.19;5105761;28;20200;-74
2023/07/01 00:41:24;;;;;;;6.93;6.23;;;;;;;17.59;81.46;96675.44;5106876;28;20221;-74
2023/07/01 00:44:44;;;;;;;6.83;6.13;;;;;;;17.56;81.74;96662.56;5104655;28;20206;-75
2023/07/01 00:48:05;;;;;;;8.73;6.10;;;;;;;17.55;81.71;96668.78;5105403;28;20202;-75
2023/07/01 00:51:26;;;;;;;6.50;5.90;;;;;;;17.62;80.61;96675.16;5105557;28;20191;-74
2023/07/01 00:54:47;;;;;;;6.90;6.20;;;;;;;17.81;79.26;96669.28;5104679;28;20199;-74
2023/07/01 00:58:10;;;;;;;5.90;5.40;;;;;;;17.85;78.41;96655.84;5090265;28;20195;-73
2023/07/01 01:01:33;;;;;;;6.97;5.50;;;;;;;18.38;77.02;96661.09;5104939;28;20578;-75
2023/07/01 01:04:16;;;;;;;6.60;5.90;;;;;;;18.66;75.39;96666.56;5074076;28;20204;-75
2023/07/01 01:07:37;;;;;;;15.83;6.47;;;;;;;18.86;74.32;96657.00;5106507;28;20190;-76
2023/07/01 01:10:57;;;;;;;6.20;5.37;;;;;;;18.88;74.07;96652.47;5106490;28;20185;-75
2023/07/01 01:14:18;;;;;;;6.90;6.20;;;;;;;18.82;73.74;96653.00;5090162;28;20609;-75
2023/07/01 01:17:39;;;;;;;7.33;5.13;;;;;;;18.69;74.38;96647.13;5107153;28;20582;-75
2023/07/01 01:21:00;;;;;;;6.97;5.90;;;;;;;18.66;74.24;96650.00;5104762;28;20210;-75
2023/07/01 01:24:21;;;;;;;6.30;5.70;;;;;;;18.80;74.10;96643.56;5103901;28;20210;-75
2023/07/01 01:27:41;;;;;;;5.90;5.37;;;;;;;18.87;73.89;96650.81;5106307;28;20714;-76
2023/07/01 01:31:02;;;;;;;6.77;5.40;;;;;;;18.71;74.57;96652.25;5106031;28;20191;-77
2023/07/01 01:34:23;;;;;;;8.43;6.07;;;;;;;18.50;75.25;96647.84;5110924;28;20221;-76
2023/07/01 01:37:47;;;;;;;7.50;5.50;;;;;;;18.56;75.64;96647.34;5110117;28;20236;-75
2023/07/01 01:41:13;;;;;;;8.93;6.30;;;;;;;18.39;76.05;96650.47;5107819;28;20232;-75
2023/07/01 01:44:47;;;;;;;7.30;5.83;;;;;;;17.89;77.77;96648.53;5090783;28;20684;-79
2023/07/01 01:48:10;;;;;;;6.97;6.27;;;;;;;17.53;79.30;96657.59;5109185;28;20581;-78
2023/07/01 01:51:31;;;;;;;6.30;5.70;;;;;;;17.21;81.27;96642.72;5108850;28;20201;-78
2023/07/01 01:54:52;;;;;;;7.43;5.80;;;;;;;17.41;80.85;96655.91;5107781;28;20193;-78
2023/07/01 01:58:12;;;;;;;9.67;6.07;;;;;;;17.38;80.80;96647.44;5109778;28;20286;-77
2023/07/01 02:01:33;;;;;;;7.50;6.20;;;;;;;17.09;82.16;96645.34;5108541;28;20189;-78
2023/07/01 02:04:54;;;;;;;7.70;6.23;;;;;;;17.39;80.58;96636.88;5108651;28;20213;-77
2023/07/01 02:08:14;;;;;;;8.83;7.40;;;;;;;17.07;81.84;96635.94;5107844;28;20261;-77
2023/07/01 02:11:35;;;;;;;9.53;7.00;;;;;;;17.06;82.41;96635.09;5064611;28;20282;-77
2023/07/01 02:14:56;;;;;;;9.07;7.00;;;;;;;17.01;83.87;96636.41;5049162;28;20808;-75
2023/07/01 02:18:17;;;;;;;8.30;6.93;;;;;;;17.39;82.31;96631.63;5049824;28;20264;-76
2023/07/01 02:21:38;;;;;;;7.10;6.33;;;;;;;17.71;79.93;96635.16;5049362;28;20249;-77
2023/07/01 02:24:59;;;;;;;7.50;5.70;;;;;;;17.92;78.40;96648.31;5047042;28;20242;-77
2023/07/01 02:28:19;;;;;;;8.50;6.20;;;;;;;18.01;77.41;96654.59;5048562;28;20218;-78
2023/07/01 02:31:40;;;;;;;6.33;5.63;;;;;;;17.69;77.77;96639.69;5064101;28;20199;-79
2023/07/01 02:35:04;;;;;;;7.70;6.23;;;;;;;17.69;77.82;96659.81;5047369;28;20680;-78
2023/07/01 02:38:25;;;;;;;6.70;5.87;;;;;;;17.39;78.49;96647.34;5063866;28;20196;-79
2023/07/01 02:41:46;;;;;;;7.47;5.87;;;;;;;17.06;79.62;96657.84;5047808;28;20587;-79
2023/07/01 02:45:06;;;;;;;8.20;6.70;;;;;;;16.93;80.38;96651.88;5050958;28;20211;-78
2023/07/01 02:48:27;;;;;;;7.00;6.17;;;;;;;16.77;81.39;96654.00;5052482;28;20226;-77
2023/07/01 02:51:48;;;;;;;9.00;5.97;;;;;;;16.70;82.04;96648.41;5063929;28;20183;-78
2023/07/01 02:55:09;;;;;;;10.93;7.30;;;;;;;16.67;82.67;96653.03;5045635;28;20190;-78
2023/07/01 02:58:30;;;;;;;9.20;6.37;;;;;;;16.98;80.98;96652.38;5062778;28;20289;-76
2023/07/01 03:01:50;;;;;;;7.67;6.80;;;;;;;17.02;80.15;96659.84;5049347;28;20186;-76
2023/07/01 03:05:12;;;;;;;9.03;7.20;;;;;;;16.88;80.89;96648.75;5048367;28;20731;-78
2023/07/01 03:08:33;;;;;;;8.10;7.30;;;;;;;16.91;80.31;96643.31;5058511;28;20233;-74
2023/07/01 03:11:53;;;;;;;11.10;7.20;;;;;;;16.81;81.09;96637.97;5098121;28;20284;-75
2023/07/01 03:15:14;;;;;;;9.83;7.77;;;;;;;17.14;79.69;96646.75;5098946;28;20288;-79
2023/07/01 03:18:35;;;;;;;10.40;8.07;;;;;;;17.22;79.42;96650.44;5096542;28;20198;-74
2023/07/01 03:21:55;;;;;;;7.80;7.07;;;;;;;17.69;78.13;96650.16;5107824;28;20205;-78
2023/07/01 03:25:16;;;;;;;7.53;6.70;;;;;;;18.26;76.70;96656.88;5107143;28;20711;-77
2023/07/01 03:28:37;;;;;;;7.83;7.03;;;;;;;18.06;75.34;96652.41;5086761;28;20241;-77
2023/07/01 03:31:58;;;;;;;7.27;6.43;;;;;;;17.63;76.97;96640.19;5086993;28;20269;-75
2023/07/01 03:35:18;;;;;;;8.83;7.20;;;;;;;18.01;75.82;96637.06;5088360;28;20198;-78
2023/07/01 03:38:39;;;;;;;7.47;6.77;;;;;;;18.42;74.71;96639.72;5087471;28;20229;-78
2023/07/01 03:42:00;;;;;;;7.70;6.07;;;;;;;18.52;73.63;96640.69;5087624;28;20584;-76
2023/07/01 03:45:20;;;;;;;8.77;6.67;;;;;;;18.35;73.93;96638.59;5102741;28;20203;-76
2023/07/01 03:48:01;;;;;;;7.77;6.57;;;;;;;18.43;73.49;96635.31;5088404;28;20317;-77
2023/07/01 03:51:08;;;;;;;7.27;5.73;;;;;;;19.11;71.59;96640.84;5092263;28;20218;-77
2023/07/01 03:53:51;;;;;;;7.60;6.63;;;;;;;19.49;69.99;96643.63;5093182;28;20195;-76
2023/07/01 03:56:59;;;;;;;7.53;6.17;;;;;;;19.65;69.21;96639.66;5097014;28;20212;-74
2023/07/01 03:59:39;;;;;;;6.53;5.83;;;;;;;19.87;68.75;96642.88;5087674;28;20558;-74
2023/07/01 04:02:46;;;;;;;5.93;5.37;;;;;;;20.10;68.51;96648.69;5087549;28;20199;-75
2023/07/01 04:06:07;;;;;;;5.67;5.10;;;;;;;20.72;66.82;96649.09;5099410;28;20192;-75
2023/07/01 04:09:29;;;;;;;5.90;5.30;;;;;;;21.31;65.61;96661.16;5095059;28;20232;-74
2023/07/01 04:12:49;;;;;;;5.37;4.70;;;;;;;21.73;63.63;96664.94;5099362;28;20205;-77
2023/07/01 04:16:11;;;;;;;8.57;5.20;;;;;;;21.84;63.24;96667.44;5094588;28;20195;-76
2023/07/01 04:19:31;;;;;;;10.60;5.20;;;;;;;21.99;63.02;96657.22;5086198;28;20210;-75
2023/07/01 04:22:52;;;;;;;5.83;4.50;;;;;;;22.34;61.74;96659.84;5086808;28;20215;-78
2023/07/01 04:26:13;;;;;;;8.00;4.90;;;;;;;22.26;62.05;96657.13;5085845;28;20550;-76
2023/07/01 04:29:33;;;;;;;10.90;5.40;;;;;;;22.67;62.26;96658.34;5085882;28;20234;-74
2023/07/01 04:32:54;;;;;;;9.33;6.07;;;;;;;22.97;60.64;96657.88;5085607;28;20834;-78
2023/07/01 04:36:15;;;;;;;7.73;5.53;;;;;;;23.10;60.29;96653.00;5105334;28;20250;-78
2023/07/01 04:38:56;;;;;;;5.63;4.40;;;;;;;23.41;59.45;96656.84;5104880;28;20190;-77
2023/07/01 04:42:03;;;;;;;5.10;4.60;;;;;;;23.53;58.93;96665.31;5103652;28;20880;-78
2023/07/01 04:45:06;;;;;;;6.33;5.73;;;;;;;23.49;59.52;96656.03;5102014;28;20200;-79
2023/07/01 04:47:33;;;;;;;14.23;10.43;;;;;;;23.35;59.32;96653.00;5100703;28;20289;-78
2023/07/01 04:50:01;;;;;;;6.83;5.20;;;;;;;23.47;59.36;96645.63;5098426;28;20199;-78
2023/07/01 04:52:29;;;;;;;6.33;5.13;;;;;;;23.75;59.73;96643.56;5106635;28;20256;-79
2023/07/01 04:54:56;;;;;;;9.63;5.30;;;;;;;24.23;58.42;96652.47;5105414;28;20198;-78
2023/07/01 04:57:24;;;;;;;7.03;4.90;;;;;;;24.73;56.19;96647.06;5105232;28;20580;-75
2023/07/01 05:00:31;;;;;;;5.33;4.83;;;;;;;25.06;54.54;96655.78;5089486;28;20223;-75
2023/07/01 05:03:52;;;;;;;4.73;4.33;;;;;;;25.03;53.34;96656.97;5082591;28;20701;-78
2023/07/01 05:07:13;;;;;;;11.57;5.90;;;;;;;24.72;55.55;96663.94;5092059;28;20262;-78
2023/07/01 05:10:34;;;;;;;4.23;3.87;;;;;;;24.81;53.46;96664.78;5090064;28;20237;-78
2023/07/01 05:13:56;;;;;;;7.70;4.43;;;;;;;25.07;54.80;96659.25;5089767;28;20195;-78
2023/07/01 05:17:17;;;;;;;7.73;4.93;;;;;;;25.04;53.96;96655.13;5091349;28;20192;-79
2023/07/01 05:20:38;;;;;;;7.33;4.77;;;;;;;25.30;52.27;96663.69;5091975;28;20253;-77
2023/07/01 05:23:58;;;;;;;6.10;5.47;;;;;;;25.34;51.57;96667.66;5089967;28;20196;-78
2023/07/01 05:27:19;;;;;;;7.73;5.73;;;;;;;25.49;50.99;96673.94;5092603;28;20195;-79
2023/07/01 05:30:40;;;;;;;6.57;5.90;;;;;;;25.42;50.73;96654.41;5093966;28;20304;-79
2023/07/01 05:34:00;;;;;;;7.57;5.87;;;;;;;25.39;52.03;96662.66;5109693;28;20706;-80
2023/07/01 05:37:21;;;;;;;7.03;6.07;;;;;;;25.38;51.54;96655.72;5102482;28;20220;-77
2023/07/01 05:40:42;;;;;;;6.43;5.83;;;;;;;25.60;50.33;96665.59;5100170;28;20290;-79
2023/07/01 05:44:03;;;;;;;7.07;6.13;;;;;;;25.03;51.25;96664.09;5112863;28;20278;-77
2023/07/01 05:47:24;;;;;;;8.33;6.33;;;;;;;25.13;51.54;96659.41;5112314;28;20197;-78
2023/07/01 05:50:07;;;;;;;9.47;6.07;;;;;;;24.85;52.00;96660.81;5111906;28;20796;-78
2023/07/01 05:53:17;;;;;;;10.10;6.00;;;;;;;25.13;51.13;96645.34;5111701;28;20606;-78
2023/07/01 05:56:15;;;;;;;7.27;6.30;;;;;;;25.41;52.68;96642.13;5112152;28;20187;-79
2023/07/01 05:59:42;;;;;;;7.63;5.93;;;;;;;25.09;51.94;96626.31;5111966;27;20181;-76
2023/07/01 06:03:02;;;;;;;7.03;6.37;;;;;;;25.32;52.21;96644.97;5111577;28;20197;-75
2023/07/01 06:06:24;;;;;;;8.33;6.23;;;;;;;25.53;51.80;96646.06;5112404;28;20666;-77
2023/07/01 06:09:45;;;;;;;7.33;5.77;;;;;;;25.02;53.74;96649.16;5093001;28;20329;-79
2023/07/01 06:13:06;;;;;;;6.40;5.47;;;;;;;25.04;53.70;96660.41;5111503;28;20183;-79
2023/07/01 06:16:26;;;;;;;6.83;6.13;;;;;;;25.40;52.30;96643.13;5110080;28;20267;-79
2023/07/01 06:19:47;;;;;;;8.40;6.40;;;;;;;25.82;53.25;96662.19;5109177;28;20223;-74
2023/07/01 06:23:09;;;;;;;6.47;5.60;;;;;;;25.92;50.33;96631.97;5108354;28;20510;-79
2023/07/01 06:26:30;;;;;;;7.07;6.37;;;;;;;25.95;50.13;96660.78;5105393;28;20276;-76
2023/07/01 06:29:51;;;;;;;5.80;5.20;;;;;;;25.28;51.01;96655.09;5107863;28;20531;-78
2023/07/01 06:33:12;;;;;;;5.23;4.70;;;;;;;24.96;52.67;96645.38;5108950;28;20185;-74
2023/07/01 06:36:33;;;;;;;7.53;5.87;;;;;;;25.47;51.78;96652.06;5109502;28;20279;-75
2023/07/01 06:39:56;;;;;;;6.10;5.53;;;;;;;25.61;50.88;96640.75;5092687;28;21088;-74
2023/07/01 06:43:18;;;;;;;6.47;5.23;;;;;;;25.36;51.34;96644.47;5107305;28;20214;-81
2023/07/01 06:46:38;;;;;;;7.20;5.97;;;;;;;25.47;50.68;96641.44;5109048;28;20571;-79
2023/07/01 06:50:12;;;;;;;;;;;;;;;;;;;;;
2023/07/01 06:53:43;;;;;;;6.97;5.60;;;;;;;26.40;49.19;96647.59;5108099;28;20199;-79
2023/07/01 06:57:04;;;;;;;9.07;5.70;;;;;;;26.53;48.77;96637.19;5105741;28;20541;-76
2023/07/01 07:00:25;;;;;;;9.23;6.20;;;;;;;27.09;47.62;96660.66;5105168;28;20196;-75
2023/07/01 07:03:46;;;;;;;9.00;6.20;;;;;;;27.19;47.77;96658.56;5108270;28;20192;-77
2023/07/01 07:07:06;;;;;;;5.60;4.70;;;;;;;26.66;47.28;96658.69;5108425;28;20192;-77
2023/07/01 07:10:27;;;;;;;9.70;5.00;;;;;;;26.14;49.38;96655.91;5105584;28;20328;-78
2023/07/01 07:13:48;;;;;;;6.17;5.57;;;;;;;26.12;49.08;96660.56;5107168;28;20183;-77
2023/07/01 07:17:09;;;;;;;7.40;5.80;;;;;;;26.26;49.11;96658.97;5104995;28;20219;-75
2023/07/01 07:20:30;;;;;;;6.10;5.50;;;;;;;26.35;48.78;96663.25;5105723;28;20686;-79
2023/07/01 07:23:50;;;;;;;6.33;4.67;;;;;;;26.38;48.89;96662.88;5107227;28;20683;-77
2023/07/01 07:27:11;;;;;;;6.97;5.30;;;;;;;26.75;50.07;96662.94;5107057;28;20203;-78
2023/07/01 07:30:32;;;;;;;5.23;4.73;;;;;;;26.19;50.48;96655.38;5104688;28;20199;-78
2023/07/01 07:33:53;;;;;;;4.90;4.47;;;;;;;26.62;49.49;96646.78;5104683;28;20353;-77
2023/07/01 07:37:15;;;;;;;5.80;4.70;;;;;;;27.00;49.21;96656.41;5108242;28;20271;-76
2023/07/01 07:40:36;;;;;;;5.77;5.17;;;;;;;26.73;49.99;96656.19;5106971;28;20274;-78
2023/07/01 07:43:57;;;;;;;7.90;6.43;;;;;;;26.33;49.61;96638.69;5106172;28;20188;-74
2023/07/01 07:47:18;;;;;;;6.83;5.83;;;;;;;26.38;51.05;96610.59;5106256;28;20195;-79
2023/07/01 07:50:00;;;;;;;5.97;5.27;;;;;;;26.55;50.42;96632.53;5105099;28;20217;-76
2023/07/01 07:53:13;;;;;;;7.03;6.20;;;;;;;26.69;50.64;96646.88;5105331;28;20184;-74
2023/07/01 07:56:35;;;;;;;6.37;5.77;;;;;;;26.69;51.56;96636.25;5104848;28;20644;-74
2023/07/01 07:59:55;;;;;;;9.57;6.10;;;;;;;26.76;50.10;96640.69;5104159;28;20196;-75
2023/07/01 08:03:20;;;;;;;5.73;4.90;;;;;;;26.41;49.64;96622.69;5107228;28;20188;-74
2023/07/01 08:06:41;;;;;;;4.87;4.40;;;;;;;26.51;48.46;96631.25;5105884;28;20195;-75
2023/07/01 08:10:02;;;;;;;5.30;4.80;;;;;;;26.65;50.36;96627.00;5102670;28;20240;-74
2023/07/01 08:13:23;;;;;;;5.60;5.10;;;;;;;27.31;48.06;96635.81;5103450;28;20250;-75
2023/07/01 08:16:44;;;;;;;4.50;4.10;;;;;;;27.38;48.63;96636.78;5106390;28;20607;-75
2023/07/01 08:20:05;;;;;;;4.90;4.33;;;;;;;27.90;47.00;96631.25;5106335;28;20286;-79
2023/07/01 08:23:25;;;;;;;8.40;5.03;;;;;;;27.91;46.48;96638.25;5105448;28;20219;-76
2023/07/01 08:26:34;;;;;;;4.47;4.10;;;;;;;27.73;48.06;96632.50;5104843;28;20701;-76
2023/07/01 08:29:41;;;;;;;4.40;4.00;;;;;;;27.94;47.36;96637.91;5103504;28;20224;-77
2023/07/01 08:33:02;;;;;;;5.70;5.20;;;;;;;27.97;47.63;96636.69;5090056;28;21197;-78
2023/07/01 08:36:23;;;;;;;6.27;4.97;;;;;;;28.20;47.48;96629.38;5105791;28;20184;-76
2023/07/01 08:39:43;;;;;;;4.13;3.70;;;;;;;27.76;47.91;96626.00;5088385;28;20188;-75
2023/07/01 08:43:07;;;;;;;5.07;4.40;;;;;;;27.75;47.80;96625.16;5104381;28;20196;-76
2023/07/01 08:45:50;;;;;;;7.73;6.60;;;;;;;27.76;48.16;96621.47;5104840;28;20217;-77
2023/07/01 08:49:06;;;;;;;5.60;5.10;;;;;;;27.67;48.19;96613.78;5103404;28;20328;-77
2023/07/01 08:52:04;;;;;;;4.50;4.10;;;;;;;27.46;48.09;96611.06;5104803;28;20598;-74
2023/07/01 08:54:47;;;;;;;4.70;4.30;;;;;;;26.98;49.55;96596.44;5104454;28;20211;-74
2023/07/01 08:58:09;;;;;;;6.20;4.13;;;;;;;27.15;48.61;96609.41;5103321;28;20223;-79
2023/07/01 09:01:32;;;;;;;7.17;5.03;;;;;;;27.62;47.72;96602.88;5101277;28;20556;-77
2023/07/01 09:04:53;;;;;;;6.80;4.57;;;;;;;27.55;48.40;96591.34;5088756;28;20184;-76
2023/07/01 09:08:14;;;;;;;7.33;4.17;;;;;;;27.69;48.32;96593.16;5106182;28;20258;-75
2023/07/01 09:11:35;;;;;;;5.87;5.37;;;;;;;27.59;48.88;96595.28;5103755;28;20187;-77
2023/07/01 09:14:54;;;;;;;6.13;4.63;;;;;;;27.89;48.21;96581.72;5102666;28;20283;-76
2023/07/01 09:18:20;;;;;;;4.50;4.10;;;;;;;27.91;47.23;96589.50;5104501;28;20196;-75
2023/07/01 09:21:41;;;;;;;8.67;4.50;;;;;;;28.21;46.78;96575.13;5103548;28;20189;-77
2023/07/01 09:25:02;;;;;;;4.63;3.93;;;;;;;28.67;45.41;96580.84;5105706;28;20666;-76
2023/07/01 09:28:27;;;;;;;4.77;4.03;;;;;;;28.85;44.55;96579.34;5103321;28;20188;-76
2023/07/01 09:31:48;;;;;;;4.43;3.60;;;;;;;28.57;44.88;96575.88;5104736;28;20192;-77
2023/07/01 09:35:12;;;;;;;4.60;4.20;;;;;;;28.07;46.03;96571.47;5104916;28;20339;-79
2023/07/01 09:38:33;;;;;;;4.57;4.03;;;;;;;27.81;45.74;96575.66;5103777;28;20192;-78
2023/07/01 09:41:54;;;;;;;5.27;4.23;;;;;;;27.96;46.38;96576.50;5106033;28;20683;-75
2023/07/01 09:45:18;;;;;;;3.97;3.57;;;;;;;28.07;46.24;96565.31;5104171;28;20195;-80
2023/07/01 09:48:39;;;;;;;4.67;3.80;;;;;;;28.13;44.41;96562.72;5102407;28;20219;-75
2023/07/01 09:52:05;;;;;;;3.70;3.40;;;;;;;27.83;44.09;96565.66;5106541;28;20184;-76
2023/07/01 09:55:27;;;;;;;5.10;3.70;;;;;;;27.78;44.38;96563.56;5109656;27;20192;-77
2023/07/01 09:58:48;;;;;;;5.03;3.93;;;;;;;27.94;43.86;96558.03;5106838;28;20216;-74
2023/07/01 10:02:10;;;;;;;4.93;3.83;;;;;;;28.29;44.74;96560.84;5108157;28;20187;-78
2023/07/01 10:05:30;;;;;;;4.80;3.90;;;;;;;28.32;44.48;96550.59;5106752;28;20195;-75
2023/07/01 10:08:51;;;;;;;5.47;3.43;;;;;;;28.50;42.89;96548.28;5106983;28;20251;-77
2023/07/01 10:12:12;;;;;;;5.27;4.10;;;;;;;28.59;42.84;96547.19;5109143;28;20230;-75
2023/07/01 10:15:32;;;;;;;4.03;3.63;;;;;;;28.87;42.31;96550.66;5107644;28;20203;-77
2023/07/01 10:18:59;;;;;;;4.60;3.83;;;;;;;29.45;40.79;96553.88;5108291;28;20279;-79
2023/07/01 10:22:23;;;;;;;4.40;3.97;;;;;;;29.96;39.84;96544.41;5089799;28;20280;-76
2023/07/01 10:25:47;;;;;;;5.13;4.27;;;;;;;30.11;40.32;96547.72;5107495;28;20193;-75
2023/07/01 10:29:08;;;;;;;4.27;3.87;;;;;;;29.13;42.28;96542.00;5108552;28;20690;-77
2023/07/01 10:32:13;;;;;;;3.77;3.47;;;;;;;28.51;43.11;96528.63;5108054;28;20195;-79
2023/07/01 10:34:58;;;;;;;4.23;3.67;;;;;;;28.49;42.97;96525.34;5092240;28;20740;-76
2023/07/01 10:37:39;;;;;;;4.93;4.03;;;;;;;28.36;43.67;96525.22;5109399;28;20188;-76
2023/07/01 10:40:30;;;;;;;4.73;3.90;;;;;;;28.34;43.59;96515.81;5107846;28;20223;-74
2023/07/01 10:44:00;;;;;;;4.20;3.90;;;;;;;28.35;43.94;96518.28;5102878;28;20546;-79
2023/07/01 10:47:32;;;;;;;4.93;3.77;;;;;;;28.58;44.13;96508.22;5106021;28;20686;-77
2023/07/01 10:50:54;;;;;;;4.23;3.50;;;;;;;28.84;43.56;96513.72;5106395;28;20196;-78
2023/07/01 10:54:23;;;;;;;4.30;3.90;;;;;;;29.09;43.15;96505.22;5104702;28;20187;-77
2023/07/01 10:57:53;;;;;;;4.63;3.83;;;;;;;29.40;41.62;96509.09;5106233;28;20210;-74
2023/07/01 11:01:14;;;;;;;3.83;3.53;;;;;;;29.14;43.15;96492.13;5105349;28;20184;-78
2023/07/01 11:04:35;;;;;;;5.30;4.10;;;;;;;29.83;40.81;96496.31;5108882;28;20762;-78
2023/07/01 11:07:56;;;;;;;4.40;3.83;;;;;;;30.31;40.21;96484.47;5108519;28;20211;-78
2023/07/01 11:11:17;;;;;;;4.27;3.87;;;;;;;30.06;40.43;96480.75;5105812;28;20206;-74
2023/07/01 11:13:59;;;;;;;4.83;4.33;;;;;;;29.47;41.99;96442.41;5104472;28;20202;-74
2023/07/01 11:16:42;;;;;;;4.37;3.90;;;;;;;29.79;41.79;96462.22;5107943;28;20281;-75
2023/07/01 11:19:23;;;;;;;4.53;4.20;;;;;;;29.92;41.31;96449.72;5104682;28;20610;-76
2023/07/01 11:22:05;;;;;;;6.70;4.10;;;;;;;29.91;40.66;96436.53;5105974;28;20535;-76
2023/07/01 11:24:47;;;;;;;6.97;4.10;;;;;;;30.30;40.19;96450.75;5106702;28;20568;-76
2023/07/01 11:28:09;;;;;;;4.87;4.20;;;;;;;29.84;41.25;96452.59;5106092;28;20794;-74
2023/07/01 11:31:39;;;;;;;5.43;4.30;;;;;;;29.63;40.96;96460.72;5107142;28;20195;-75
2023/07/01 11:35:01;;;;;;;4.30;4.00;;;;;;;29.67;41.23;96441.44;5105859;28;20705;-76
2023/07/01 11:38:21;;;;;;;4.50;4.10;;;;;;;29.12;43.20;96443.50;5105624;28;20635;-74
2023/07/01 11:41:42;;;;;;;4.53;3.87;;;;;;;29.17;41.62;96438.41;5104138;28;20191;-75
2023/07/01 11:45:02;;;;;;;4.60;4.20;;;;;;;29.52;40.43;96418.59;5106267;28;20188;-76
2023/07/01 11:48:10;;;;;;;5.07;4.17;;;;;;;30.04;40.50;96433.88;5106512;28;20198;-78
2023/07/01 11:50:53;;;;;;;8.57;5.20;;;;;;;30.32;40.98;96434.50;5106014;28;20624;-77
2023/07/01 11:53:20;;;;;;;5.27;4.77;;;;;;;30.51;39.92;96444.34;5105397;28;20219;-75
2023/07/01 11:56:58;;;;;;;6.93;6.10;;;;;;;29.63;41.35;96447.38;5106871;28;20195;-77
2023/07/01 12:00:19;;;;;;;6.77;6.17;;;;;;;29.99;41.49;96431.81;5107540;28;20194;-76
2023/07/01 12:03:40;;;;;;;5.17;4.47;;;;;;;30.23;40.75;96439.19;5106507;28;20198;-75
2023/07/01 12:06:25;;;;;;;4.87;4.23;;;;;;;30.27;39.45;96447.66;5106721;28;20295;-74
2023/07/01 12:09:08;;;;;;;4.43;4.03;;;;;;;30.06;40.14;96435.31;5106519;28;20235;-75
2023/07/01 12:11:49;;;;;;;5.20;4.70;;;;;;;30.00;40.75;96446.84;5104616;28;20200;-75
2023/07/01 12:14:30;;;;;;;5.10;4.57;;;;;;;30.09;40.67;96445.59;5105622;28;20195;-75
2023/07/01 12:17:25;;;;;;;11.77;4.63;;;;;;;29.72;40.31;96427.44;5087896;28;20742;-75
2023/07/01 12:20:08;;;;;;;4.97;4.00;;;;;;;29.34;40.83;96437.03;5106507;28;20195;-76
2023/07/01 12:23:29;;;;;;;6.57;4.50;;;;;;;29.14;41.83;96434.25;5105883;28;20183;-74
2023/07/01 12:26:13;;;;;;;5.80;4.23;;;;;;;29.29;41.16;96426.13;5103343;28;20188;-77
2023/07/01 12:29:21;;;;;;;4.80;4.40;;;;;;;29.37;41.64;96442.78;5105651;28;20309;-73
2023/07/01 12:32:41;;;;;;;5.17;4.30;;;;;;;29.25;42.17;96424.88;5104998;28;20256;-74
2023/07/01 12:36:03;;;;;;;5.50;4.10;;;;;;;29.49;39.93;96429.69;5106817;28;20196;-73
2023/07/01 12:39:23;;;;;;;5.50;4.50;;;;;;;29.80;39.72;96429.94;5104367;28;20222;-74
2023/07/01 12:42:45;;;;;;;6.07;4.40;;;;;;;29.86;39.28;96425.66;5104328;28;20212;-77
2023/07/01 12:46:06;;;;;;;4.60;4.10;;;;;;;29.82;38.43;96422.56;5086713;28;20602;-77
2023/07/01 12:48:54;;;;;;;4.37;4.07;;;;;;;30.25;38.56;96428.34;5106052;28;20226;-77
2023/07/01 12:52:02;;;;;;;5.13;4.63;;;;;;;30.28;38.68;96428.72;5072406;28;20931;-76
2023/07/01 12:55:22;;;;;;;4.63;4.23;;;;;;;30.44;38.24;96439.00;5106503;28;20233;-76
2023/07/01 12:58:43;;;;;;;4.17;3.80;;;;;;;30.21;38.00;96427.09;5105333;28;20210;-75
2023/07/01 13:02:04;;;;;;;5.40;4.73;;;;;;;30.53;38.05;96423.56;5102678;28;20963;-76
2023/07/01 13:05:25;;;;;;;4.60;4.20;;;;;;;30.69;37.59;96415.09;5106743;28;20582;-78
2023/07/01 13:08:45;;;;;;;4.13;3.80;;;;;;;30.18;38.42;96414.97;5104372;28;20222;-74
2023/07/01 13:12:06;;;;;;;4.67;4.27;;;;;;;29.98;38.13;96399.97;5105190;28;20188;-77
2023/07/01 13:15:27;;;;;;;4.90;4.00;;;;;;;30.00;38.09;96408.63;5103095;28;20594;-80
2023/07/01 13:18:48;;;;;;;4.27;3.97;;;;;;;30.24;37.65;96411.47;5105138;28;20210;-75
2023/07/01 13:22:08;;;;;;;4.20;3.80;;;;;;;30.82;36.40;96407.03;5104228;28;20259;-76
2023/07/01 13:25:29;;;;;;;4.30;3.87;;;;;;;30.88;35.72;96397.38;5104489;28;20188;-77
2023/07/01 13:28:51;;;;;;;4.10;3.70;;;;;;;29.95;37.18;96349.63;5109259;28;20223;-77
2023/07/01 13:32:12;;;;;;;4.93;3.90;;;;;;;29.93;36.89;96394.44;5109885;28;20286;-77
2023/07/01 13:35:33;;;;;;;4.60;3.93;;;;;;;29.61;37.80;96385.38;5110186;28;20188;-78
2023/07/01 13:38:54;;;;;;;4.77;4.37;;;;;;;29.48;38.64;96388.84;5109783;28;20212;-73
2023/07/01 13:42:15;;;;;;;4.83;4.07;;;;;;;30.08;37.73;96393.19;5107387;28;20244;-75
2023/07/01 13:45:36;;;;;;;5.07;4.37;;;;;;;30.24;37.31;96395.44;5107429;28;20194;-74
2023/07/01 13:48:48;;;;;;;4.30;3.90;;;;;;;30.35;36.47;96402.88;5109904;28;20596;-78
2023/07/01 13:51:45;;;;;;;4.43;4.03;;;;;;;30.00;36.70;96356.03;5109273;28;20207;-76
2023/07/01 13:55:06;;;;;;;4.10;3.80;;;;;;;30.35;36.74;96365.44;5089777;28;20195;-74
2023/07/01 13:58:27;;;;;;;4.17;3.77;;;;;;;30.39;36.11;96376.53;5107783;28;20211;-74
2023/07/01 14:01:48;;;;;;;6.80;3.87;;;;;;;30.45;35.75;96367.69;5109703;28;20191;-75
2023/07/01 14:05:08;;;;;;;5.03;4.27;;;;;;;30.43;36.07;96375.91;5107800;28;20191;-77
2023/07/01 14:08:37;;;;;;;4.83;3.80;;;;;;;30.24;36.42;96373.22;5106900;28;20285;-77
2023/07/01 14:11:58;;;;;;;4.13;3.73;;;;;;;30.35;36.63;96368.13;5091827;28;20191;-77
2023/07/01 14:15:18;;;;;;;4.70;4.10;;;;;;;30.03;36.38;96365.44;5109419;28;20195;-75
2023/07/01 14:18:19;;;;;;;5.00;3.60;;;;;;;30.15;36.56;96337.91;5107875;28;20303;-75
2023/07/01 14:21:41;;;;;;;4.37;3.97;;;;;;;30.12;36.53;96342.84;5107219;28;20182;-76
2023/07/01 14:25:05;;;;;;;3.70;3.40;;;;;;;29.93;35.75;96349.03;5106074;28;20188;-76
2023/07/01 14:28:26;;;;;;;4.60;3.80;;;;;;;29.96;36.06;96344.09;5108466;28;20840;-77
2023/07/01 14:31:49;;;;;;;4.40;4.07;;;;;;;29.57;36.90;96341.41;5109650;28;20667;-76
2023/07/01 14:35:10;;;;;;;4.40;3.97;;;;;;;29.41;36.93;96328.47;5109389;28;20678;-79
2023/07/01 14:38:31;;;;;;;4.70;4.30;;;;;;;29.40;36.95;96322.31;5108139;28;20222;-75
2023/07/01 14:41:51;;;;;;;5.40;4.20;;;;;;;29.34;37.83;96307.13;5108554;28;20198;-75
2023/07/01 14:45:12;;;;;;;4.73;4.17;;;;;;;29.55;36.77;96314.13;5108807;28;20196;-78
2023/07/01 14:48:33;;;;;;;4.03;3.60;;;;;;;29.86;36.74;96274.28;5093304;28;20702;-75
2023/07/01 14:51:54;;;;;;;4.57;4.13;;;;;;;29.81;36.39;96308.78;5108871;28;20603;-75
2023/07/01 14:55:16;;;;;;;5.10;4.27;;;;;;;30.10;36.40;96297.66;5107939;28;20195;-76
2023/07/01 14:58:37;;;;;;;3.97;3.67;;;;;;;30.33;35.89;96297.19;5105919;28;20287;-75
2023/07/01 15:01:59;;;;;;;4.83;3.77;;;;;;;30.24;35.71;96298.41;5106791;28;20207;-74
2023/07/01 15:05:20;;;;;;;6.30;3.77;;;;;;;30.01;35.65;96280.19;5108864;28;20202;-75
2023/07/01 15:08:01;;;;;;;5.53;3.90;;;;;;;29.84;35.98;96276.34;5108083;28;20191;-78
2023/07/01 15:11:08;;;;;;;4.73;3.83;;;;;;;29.85;36.29;96275.31;5107616;28;20194;-77
2023/07/01 15:14:28;;;;;;;3.80;3.50;;;;;;;29.84;35.95;96288.88;5107266;28;20210;-75
2023/07/01 15:17:11;;;;;;;5.13;3.97;;;;;;;29.91;36.28;96278.97;5087320;28;20230;-78
2023/07/01 15:20:33;;;;;;;4.03;3.50;;;;;;;29.87;36.60;96259.88;5086231;28;20863;-76